Time;durP1;ratioP1;P1;durP2;ratioP2;P2;SDS_P1;SDS_P2;PMS_P1;PMS_P2;Temp;Humidity;BMP_temperature;BMP_pressure;BME280_temperature;BME280_humidity;BME280_pressure;Samples;Min_cycle;Max_cycle;Signal;HPM_P1;HPM_P2
2021/11/16 00:02:17;;;;;;;17.70;11.27;;;5.80;99.90;;;;;;5016975;28;20571;-86
2021/11/16 00:04:42;;;;;;;17.30;11.57;;;5.80;99.90;;;;;;5015406;28;20237;-86
2021/11/16 00:07:09;;;;;;;19.17;11.37;;;5.80;99.90;;;;;;5015878;28;20262;-88
2021/11/16 00:09:35;;;;;;;17.77;10.83;;;5.80;99.90;;;;;;5015636;28;20179;-87
2021/11/16 00:12:01;;;;;;;16.70;10.70;;;5.80;99.90;;;;;;5016971;28;20766;-87
2021/11/16 00:14:29;;;;;;;21.03;10.87;;;5.80;99.90;;;;;;5017082;28;20689;-87
2021/11/16 00:16:54;;;;;;;19.50;11.90;;;5.80;99.90;;;;;;5015865;28;20212;-91
2021/11/16 00:19:20;;;;;;;24.90;13.17;;;5.80;99.90;;;;;;5018204;28;20413;-89
2021/11/16 00:21:48;;;;;;;21.90;11.93;;;5.80;99.90;;;;;;5016854;28;20648;-88
2021/11/16 00:24:19;;;;;;;22.03;12.43;;;5.80;99.90;;;;;;5016619;28;20418;-92
2021/11/16 00:26:46;;;;;;;18.03;10.83;;;5.70;99.90;;;;;;5018157;28;20422;-89
2021/11/16 00:29:13;;;;;;;20.10;11.47;;;5.70;99.90;;;;;;5017487;28;20463;-93
2021/11/16 00:31:39;;;;;;;20.73;12.03;;;5.70;99.90;;;;;;5017881;28;20516;-92
2021/11/16 00:34:06;;;;;;;22.23;12.43;;;5.70;99.90;;;;;;5016317;28;20477;-93
2021/11/16 00:36:32;;;;;;;19.30;11.63;;;5.70;99.90;;;;;;5017486;28;20965;-94
2021/11/16 00:38:58;;;;;;;19.53;13.03;;;5.70;99.90;;;;;;5016503;28;20433;-93
2021/11/16 00:41:25;;;;;;;18.30;11.17;;;5.70;99.90;;;;;;5017451;28;20844;-93
2021/11/16 00:43:51;;;;;;;19.00;11.07;;;5.70;99.90;;;;;;5017291;28;20422;-93
2021/11/16 00:46:17;;;;;;;20.33;12.17;;;5.60;99.90;;;;;;5017114;28;20426;-92
2021/11/16 00:48:43;;;;;;;22.47;11.73;;;5.70;99.90;;;;;;5016931;28;20540;-92
2021/11/16 00:51:11;;;;;;;24.50;12.43;;;5.60;99.90;;;;;;5016986;28;20170;-92
2021/11/16 00:53:38;;;;;;;15.93;11.20;;;5.70;99.90;;;;;;5017397;28;20465;-90
2021/11/16 00:56:07;;;;;;;24.00;13.07;;;5.60;99.90;;;;;;5016359;28;20417;-92
2021/11/16 00:58:33;;;;;;;19.40;10.67;;;5.60;99.90;;;;;;5017930;28;20809;-92
2021/11/16 01:01:00;;;;;;;19.57;12.30;;;5.60;99.90;;;;;;5017937;28;20413;-94
2021/11/16 01:03:26;;;;;;;21.57;12.97;;;5.70;99.90;;;;;;5015866;28;20473;-93
2021/11/16 01:05:53;;;;;;;22.00;12.83;;;5.60;99.90;;;;;;5017265;28;20417;-93
2021/11/16 01:08:20;;;;;;;20.40;13.37;;;5.60;99.90;;;;;;5018248;28;20507;-93
2021/11/16 01:10:47;;;;;;;24.33;12.83;;;5.60;99.90;;;;;;5018863;28;20745;-92
2021/11/16 01:13:14;;;;;;;17.60;12.50;;;5.70;99.90;;;;;;5018245;28;20612;-93
2021/11/16 01:15:41;;;;;;;23.77;13.27;;;5.70;99.90;;;;;;5019209;28;20410;-92
2021/11/16 01:18:09;;;;;;;24.37;13.07;;;5.60;99.90;;;;;;5019028;28;20426;-94
2021/11/16 01:20:36;;;;;;;21.80;10.83;;;5.70;99.90;;;;;;5027683;28;20432;-90
2021/11/16 01:23:04;;;;;;;20.57;13.53;;;5.60;99.90;;;;;;5025877;28;20490;-92
2021/11/16 01:25:33;;;;;;;24.60;13.30;;;5.60;99.90;;;;;;5022551;28;20406;-92
2021/11/16 01:28:06;;;;;;;24.63;15.13;;;5.60;99.90;;;;;;5020049;28;20421;-91
2021/11/16 01:30:32;;;;;;;20.37;12.20;;;5.50;99.90;;;;;;5020513;28;20544;-93
2021/11/16 01:33:26;;;;;;;19.40;12.03;;;5.50;99.90;;;;;;5018464;28;20469;-93
2021/11/16 01:35:44;;;;;;;20.93;12.30;;;5.60;99.90;;;;;;5022743;28;20214;-92
2021/11/16 01:38:13;;;;;;;19.63;13.13;;;5.60;99.90;;;;;;5021023;28;20508;-92
2021/11/16 01:40:40;;;;;;;21.83;12.83;;;5.50;99.90;;;;;;5018493;28;20429;-92
2021/11/16 01:43:09;;;;;;;15.80;10.60;;;5.50;99.90;;;;;;5016391;28;20418;-88
2021/11/16 01:45:36;;;;;;;20.37;13.87;;;5.60;99.90;;;;;;5015572;28;20427;-92
2021/11/16 01:48:02;;;;;;;21.70;13.10;;;5.60;99.90;;;;;;5016677;28;20419;-90
2021/11/16 01:50:28;;;;;;;17.07;11.63;;;5.60;99.90;;;;;;5015996;28;20422;-94
2021/11/16 01:52:54;;;;;;;19.70;12.47;;;5.60;99.90;;;;;;5016539;28;20824;-93
2021/11/16 01:55:22;;;;;;;18.63;10.60;;;5.60;99.90;;;;;;5016427;28;20713;-92
2021/11/16 01:57:49;;;;;;;21.83;13.67;;;5.60;99.90;;;;;;5016316;28;20419;-91
2021/11/16 02:00:19;;;;;;;17.90;10.90;;;5.60;99.90;;;;;;5015243;28;20484;-89
2021/11/16 02:02:45;;;;;;;18.40;10.70;;;5.60;99.90;;;;;;5016350;28;20468;-93
2021/11/16 02:05:12;;;;;;;18.30;11.67;;;5.70;99.90;;;;;;5016395;28;20444;-93
2021/11/16 02:07:43;;;;;;;21.27;12.50;;;5.60;99.90;;;;;;5015382;28;20792;-94
2021/11/16 02:10:09;;;;;;;22.30;13.70;;;5.60;99.90;;;;;;5016898;28;20410;-94
2021/11/16 02:12:35;;;;;;;16.13;11.83;;;5.50;99.90;;;;;;5016639;28;20461;-91
2021/11/16 02:15:04;;;;;;;24.30;15.40;;;5.60;99.90;;;;;;5016110;28;20433;-93
2021/11/16 02:17:31;;;;;;;22.67;14.50;;;5.60;99.90;;;;;;5016381;28;20422;-90
2021/11/16 02:19:56;;;;;;;27.07;14.17;;;5.60;99.90;;;;;;5015311;28;20486;-93
2021/11/16 02:22:22;;;;;;;20.17;13.37;;;5.50;99.90;;;;;;5015793;28;20410;-93
2021/11/16 02:24:48;;;;;;;23.93;14.17;;;5.50;99.90;;;;;;5015639;28;20171;-92
2021/11/16 02:27:14;;;;;;;23.93;14.80;;;5.60;99.90;;;;;;5015566;28;20179;-90
2021/11/16 02:29:40;;;;;;;24.37;15.53;;;5.50;99.90;;;;;;5014657;28;20417;-93
2021/11/16 02:32:06;;;;;;;21.90;13.77;;;5.50;99.90;;;;;;5015642;28;20170;-91
2021/11/16 02:34:32;;;;;;;22.33;14.03;;;5.50;99.90;;;;;;5015437;28;20414;-93
2021/11/16 02:36:58;;;;;;;25.07;14.80;;;5.50;99.90;;;;;;5015837;28;20421;-93
2021/11/16 02:39:24;;;;;;;24.07;14.03;;;5.50;99.90;;;;;;5015467;28;20167;-94
2021/11/16 02:41:52;;;;;;;23.90;14.27;;;5.50;99.90;;;;;;5015435;28;20499;-92
2021/11/16 02:44:19;;;;;;;24.20;15.20;;;5.50;99.90;;;;;;5014162;28;20171;-93
2021/11/16 02:46:46;;;;;;;25.27;14.80;;;5.50;99.90;;;;;;5015472;28;20509;-94
2021/11/16 02:49:13;;;;;;;21.50;14.30;;;5.50;99.90;;;;;;5015215;28;20976;-93
2021/11/16 02:51:39;;;;;;;27.00;14.77;;;5.50;99.90;;;;;;5015162;28;20562;-93
2021/11/16 02:54:15;;;;;;;23.63;14.00;;;5.50;99.90;;;;;;5015485;28;20473;-93
2021/11/16 02:56:42;;;;;;;23.67;14.33;;;5.50;99.90;;;;;;5016111;28;20504;-93
2021/11/16 02:59:08;;;;;;;25.37;13.90;;;5.50;99.90;;;;;;5015993;28;20441;-91
2021/11/16 03:01:34;;;;;;;30.40;16.13;;;5.40;99.90;;;;;;5015028;28;20444;-92
2021/11/16 03:04:00;;;;;;;28.97;13.40;;;5.50;99.90;;;;;;5014536;28;20454;-92
2021/11/16 03:06:26;;;;;;;27.47;15.00;;;5.40;99.90;;;;;;5015279;28;20452;-91
2021/11/16 03:08:51;;;;;;;27.80;15.30;;;5.40;99.90;;;;;;5014836;28;20422;-91
2021/11/16 03:11:17;;;;;;;27.03;13.97;;;5.40;99.90;;;;;;5014839;28;20421;-90
2021/11/16 03:13:43;;;;;;;28.00;15.80;;;5.40;99.90;;;;;;5015329;28;20300;-93
2021/11/16 03:16:12;;;;;;;24.57;13.77;;;5.40;99.90;;;;;;5015630;28;20182;-92
2021/11/16 03:18:39;;;;;;;25.97;14.53;;;5.50;99.90;;;;;;5016509;28;20894;-94
2021/11/16 03:21:07;;;;;;;25.97;15.57;;;5.40;99.90;;;;;;5016605;28;20541;-93
2021/11/16 03:23:33;;;;;;;27.47;15.97;;;5.40;99.90;;;;;;5016729;28;20431;-93
2021/11/16 03:26:01;;;;;;;27.30;15.13;;;5.40;99.90;;;;;;5018192;28;20452;-92
2021/11/16 03:28:31;;;;;;;26.07;14.97;;;5.40;99.90;;;;;;5015312;28;20449;-92
2021/11/16 03:33:49;;;;;;;31.77;15.40;;;5.40;99.90;;;;;;5015718;28;20456;-92
2021/11/16 03:36:17;;;;;;;26.30;15.37;;;5.40;99.90;;;;;;5014306;28;20460;-93
2021/11/16 03:38:43;;;;;;;31.03;15.57;;;5.40;99.90;;;;;;5015429;28;20434;-93
2021/11/16 03:41:10;;;;;;;30.00;16.00;;;5.50;99.90;;;;;;5016874;28;20418;-93
2021/11/16 03:43:36;;;;;;;29.60;16.37;;;5.50;99.90;;;;;;5016596;28;20426;-92
2021/11/16 03:46:02;;;;;;;25.60;16.33;;;5.40;99.90;;;;;;5016002;28;20410;-91
2021/11/16 03:48:29;;;;;;;31.00;16.67;;;5.50;99.90;;;;;;5015553;28;20414;-92
2021/11/16 03:50:56;;;;;;;27.13;14.03;;;5.40;99.90;;;;;;5016041;28;20415;-94
2021/11/16 03:53:22;;;;;;;21.63;13.90;;;5.50;99.90;;;;;;5015694;28;20465;-94
2021/11/16 03:55:49;;;;;;;28.43;15.47;;;5.50;99.90;;;;;;5016204;28;20508;-94
2021/11/16 03:58:19;;;;;;;21.93;12.77;;;5.50;99.90;;;;;;5016855;28;20414;-93
2021/11/16 04:01:01;;;;;;;27.93;15.33;;;5.50;99.90;;;;;;5015979;28;20906;-91
2021/11/16 04:03:30;;;;;;;28.70;14.23;;;5.50;99.90;;;;;;5014607;28;20470;-90
2021/11/16 04:05:56;;;;;;;21.37;14.77;;;5.50;99.90;;;;;;5015473;28;20402;-89
2021/11/16 04:08:23;;;;;;;26.03;14.90;;;5.50;99.90;;;;;;5014617;28;20406;-84
2021/11/16 04:10:50;;;;;;;20.97;14.03;;;5.50;99.90;;;;;;5014753;28;20800;-86
2021/11/16 04:13:17;;;;;;;23.50;14.30;;;5.50;99.90;;;;;;5014464;28;20534;-86
2021/11/16 04:15:45;;;;;;;23.83;12.73;;;5.50;99.90;;;;;;5013943;28;20838;-85
2021/11/16 04:18:11;;;;;;;23.17;13.60;;;5.50;99.90;;;;;;5015374;28;20497;-87
2021/11/16 04:20:40;;;;;;;26.83;14.03;;;5.50;99.90;;;;;;5016975;28;20460;-94
2021/11/16 04:23:10;;;;;;;22.30;13.50;;;5.50;99.90;;;;;;5023781;28;20426;-84
2021/11/16 04:25:38;;;;;;;22.47;13.60;;;5.50;99.90;;;;;;5027488;28;20409;-92
2021/11/16 04:28:05;;;;;;;21.00;12.70;;;5.60;99.90;;;;;;5024728;28;20521;-91
2021/11/16 04:30:32;;;;;;;22.83;12.70;;;5.50;99.90;;;;;;5028412;28;20414;-89
2021/11/16 04:32:58;;;;;;;21.43;11.70;;;5.50;99.90;;;;;;5026714;28;20456;-93
2021/11/16 04:35:25;;;;;;;22.17;13.73;;;5.50;99.90;;;;;;5027604;28;20848;-89
2021/11/16 04:37:53;;;;;;;19.20;11.77;;;5.50;99.90;;;;;;5023570;28;20477;-90
2021/11/16 04:40:31;;;;;;;26.63;13.80;;;5.50;99.90;;;;;;5026583;28;20491;-85
2021/11/16 04:42:58;;;;;;;24.97;12.67;;;5.50;99.90;;;;;;5022494;28;20410;-83
2021/11/16 04:45:24;;;;;;;18.53;11.17;;;5.50;99.90;;;;;;5021454;28;20505;-84
2021/11/16 04:47:58;;;;;;;18.80;12.33;;;5.50;99.90;;;;;;5020872;28;20421;-84
2021/11/16 04:51:17;;;;;;;24.10;13.57;;;5.50;99.90;;;;;;5020023;28;20418;-86
2021/11/16 05:04:10;;;;;;;19.83;12.97;;;5.50;99.90;;;;;;5032231;28;20433;-81
2021/11/16 05:06:35;;;;;;;27.63;14.67;;;5.50;99.90;;;;;;5034300;28;20426;-83
2021/11/16 05:09:01;;;;;;;27.97;15.07;;;5.50;99.90;;;;;;5034181;28;20171;-83
2021/11/16 05:11:27;;;;;;;25.30;14.50;;;5.50;99.90;;;;;;5031832;28;20189;-83
2021/11/16 05:13:53;;;;;;;22.90;12.60;;;5.50;99.90;;;;;;5031157;28;20497;-83
2021/11/16 05:16:21;;;;;;;23.67;16.40;;;5.50;99.90;;;;;;5027482;28;20250;-93
2021/11/16 05:18:48;;;;;;;21.27;12.90;;;5.50;99.90;;;;;;5033670;28;20209;-88
2021/11/16 05:21:15;;;;;;;21.40;13.87;;;5.50;99.90;;;;;;5037220;28;20483;-89
2021/11/16 05:23:52;;;;;;;21.57;13.00;;;5.50;99.90;;;;;;5035307;28;20402;-92
2021/11/16 05:26:19;;;;;;;19.47;12.63;;;5.50;99.90;;;;;;5038291;28;20423;-89
2021/11/16 05:28:45;;;;;;;24.93;14.77;;;5.60;99.90;;;;;;5035277;28;20445;-92
2021/11/16 05:31:10;;;;;;;24.50;14.63;;;5.50;99.90;;;;;;5034557;28;20406;-84
2021/11/16 05:33:36;;;;;;;21.30;12.10;;;5.50;99.90;;;;;;5028038;28;20230;-82
2021/11/16 05:36:02;;;;;;;20.30;12.67;;;5.50;99.90;;;;;;5026412;28;20171;-87
2021/11/16 05:38:34;;;;;;;24.67;16.03;;;5.50;99.90;;;;;;5025097;28;20171;-86
2021/11/16 05:41:01;;;;;;;19.23;12.60;;;5.50;99.90;;;;;;5026232;28;20419;-85
2021/11/16 05:43:27;;;;;;;21.93;13.33;;;5.50;99.90;;;;;;5024419;28;20435;-83
2021/11/16 05:45:55;;;;;;;24.13;16.47;;;5.40;99.90;;;;;;5024659;28;20425;-83
2021/11/16 05:48:22;;;;;;;23.53;13.93;;;5.50;99.90;;;;;;5018252;28;20442;-83
2021/11/16 05:50:48;;;;;;;24.70;14.27;;;5.50;99.90;;;;;;5017159;28;20408;-83
2021/11/16 05:53:15;;;;;;;24.43;15.87;;;5.50;99.90;;;;;;5017948;28;20469;-83
2021/11/16 05:55:43;;;;;;;26.57;13.10;;;5.50;99.90;;;;;;5017767;28;20517;-85
2021/11/16 05:58:09;;;;;;;26.90;15.73;;;5.40;99.90;;;;;;5022166;28;20501;-83
2021/11/16 06:00:35;;;;;;;31.50;16.90;;;5.50;99.90;;;;;;5027086;28;20421;-83
2021/11/16 06:03:01;;;;;;;31.37;16.60;;;5.50;99.90;;;;;;5016767;28;20469;-84
2021/11/16 06:05:27;;;;;;;28.00;16.60;;;5.40;99.90;;;;;;5016681;28;20437;-83
2021/11/16 06:07:52;;;;;;;27.70;16.07;;;5.40;99.90;;;;;;5015558;28;20214;-84
2021/11/16 06:10:18;;;;;;;32.27;17.33;;;5.40;99.90;;;;;;5017285;28;20178;-85
2021/11/16 06:12:44;;;;;;;25.67;17.87;;;5.40;99.90;;;;;;5017962;28;20191;-84
2021/11/16 06:15:10;;;;;;;25.03;14.80;;;5.40;99.90;;;;;;5019079;28;20258;-83
2021/11/16 06:17:41;;;;;;;28.60;16.17;;;5.40;99.90;;;;;;5017846;28;20191;-83
2021/11/16 06:20:07;;;;;;;28.47;17.43;;;5.40;99.90;;;;;;5016330;28;20430;-84
2021/11/16 06:22:33;;;;;;;25.87;15.60;;;5.40;99.90;;;;;;5022584;28;20403;-85
2021/11/16 06:24:58;;;;;;;32.00;16.57;;;5.40;99.90;;;;;;5034992;28;20409;-92
2021/11/16 06:27:24;;;;;;;28.30;16.93;;;5.40;99.90;;;;;;5015387;28;20641;-87
2021/11/16 06:29:50;;;;;;;24.93;15.43;;;5.40;99.90;;;;;;5015866;28;20530;-90
2021/11/16 06:32:16;;;;;;;27.23;15.90;;;5.40;99.90;;;;;;5015694;28;20258;-92
2021/11/16 06:34:41;;;;;;;25.70;16.03;;;5.50;99.90;;;;;;5015991;28;20202;-93
2021/11/16 06:37:07;;;;;;;29.80;16.27;;;5.50;99.90;;;;;;5016657;28;20239;-88
2021/11/16 06:39:33;;;;;;;27.90;16.17;;;5.50;99.90;;;;;;5014393;28;20186;-93
2021/11/16 06:42:01;;;;;;;24.33;14.70;;;5.50;99.90;;;;;;5014568;28;20508;-93
2021/11/16 06:44:27;;;;;;;30.00;18.67;;;5.50;99.90;;;;;;5016885;28;20176;-92
2021/11/16 06:46:54;;;;;;;30.37;18.20;;;5.50;99.90;;;;;;5016669;28;20499;-87
2021/11/16 06:49:20;;;;;;;34.80;19.27;;;5.50;99.90;;;;;;5016922;28;20523;-91
2021/11/16 06:51:48;;;;;;;31.50;18.50;;;5.50;99.90;;;;;;5019917;28;20464;-87
2021/11/16 06:54:17;;;;;;;31.60;18.20;;;5.50;99.90;;;;;;5018390;28;20816;-87
2021/11/16 06:56:49;;;;;;;25.90;16.73;;;5.50;99.90;;;;;;5019515;28;20453;-88
2021/11/16 06:59:18;;;;;;;30.20;17.53;;;5.50;99.90;;;;;;5018880;28;20403;-88
2021/11/16 07:01:45;;;;;;;30.30;18.77;;;5.50;99.90;;;;;;5019313;28;20464;-92
2021/11/16 07:04:12;;;;;;;32.00;18.20;;;5.50;99.90;;;;;;5019008;28;20469;-92
2021/11/16 07:06:42;;;;;;;28.47;17.77;;;5.50;99.90;;;;;;5015081;28;20410;-90
2021/11/16 07:09:10;;;;;;;31.73;18.77;;;5.50;99.90;;;;;;5014169;28;20430;-87
2021/11/16 07:11:42;;;;;;;31.30;19.10;;;5.50;99.90;;;;;;5013792;28;21003;-90
2021/11/16 07:14:11;;;;;;;33.60;19.23;;;5.50;99.90;;;;;;5014951;28;20548;-86
2021/11/16 07:16:59;;;;;;;30.10;17.10;;;5.50;99.90;;;;;;5014817;28;20437;-87
2021/11/16 07:19:45;;;;;;;32.00;19.23;;;5.50;99.90;;;;;;5013938;28;20476;-87
2021/11/16 07:22:20;;;;;;;29.13;17.87;;;5.50;99.90;;;;;;5014723;28;20981;-92
2021/11/16 07:24:56;;;;;;;29.27;17.47;;;5.50;99.90;;;;;;5015460;28;20485;-86
2021/11/16 07:27:38;;;;;;;30.50;19.00;;;5.40;99.90;;;;;;5015735;28;20910;-90
2021/11/16 07:30:08;;;;;;;34.53;18.63;;;5.50;99.90;;;;;;5014056;28;20460;-92
2021/11/16 07:32:51;;;;;;;23.97;15.43;;;5.50;99.90;;;;;;5016966;28;20736;-94
2021/11/16 07:35:21;;;;;;;30.50;17.33;;;5.50;99.90;;;;;;5017141;28;20434;-95
2021/11/16 07:37:48;;;;;;;30.07;16.63;;;5.50;99.90;;;;;;5020091;28;20446;-94
2021/11/16 07:40:19;;;;;;;31.60;18.47;;;5.50;99.90;;;;;;5018428;28;20419;-94
2021/11/16 07:42:57;;;;;;;34.87;19.40;;;5.50;99.90;;;;;;5016225;28;20413;-93
2021/11/16 07:45:24;;;;;;;34.23;19.20;;;5.50;99.90;;;;;;5018066;28;20418;-94
2021/11/16 07:47:56;;;;;;;33.23;19.90;;;5.50;99.90;;;;;;5015794;28;20504;-93
2021/11/16 07:50:30;;;;;;;33.63;17.50;;;5.60;99.90;;;;;;5015534;28;20425;-94
2021/11/16 07:53:08;;;;;;;33.80;17.90;;;5.50;99.90;;;;;;5016870;28;20466;-94
2021/11/16 07:55:34;;;;;;;32.07;17.47;;;5.50;99.90;;;;;;5017269;28;20812;-93
2021/11/16 07:58:04;;;;;;;31.90;18.17;;;5.50;99.90;;;;;;5017906;28;20426;-93
2021/11/16 08:00:32;;;;;;;32.60;17.37;;;5.50;99.90;;;;;;5018883;28;20461;-90
2021/11/16 08:03:03;;;;;;;29.23;16.97;;;5.50;99.90;;;;;;5017573;28;20576;-92
2021/11/16 08:05:43;;;;;;;30.77;19.13;;;5.50;99.90;;;;;;5017630;28;20427;-92
2021/11/16 08:10:43;;;;;;;33.37;19.30;;;5.50;99.90;;;;;;5018635;28;20765;-90
2021/11/16 08:13:16;;;;;;;30.83;17.00;;;5.50;99.90;;;;;;5018064;28;20474;-90
2021/11/16 08:15:43;;;;;;;35.00;19.17;;;5.50;99.90;;;;;;5022368;28;20624;-87
2021/11/16 08:18:13;;;;;;;35.27;18.53;;;5.60;99.90;;;;;;5022006;28;20948;-93
2021/11/16 08:20:40;;;;;;;29.93;18.23;;;5.60;99.90;;;;;;5016631;28;20488;-91
2021/11/16 08:23:08;;;;;;;29.40;18.17;;;5.60;99.90;;;;;;5018645;28;20845;-92
2021/11/16 08:25:36;;;;;;;35.50;20.50;;;5.60;99.90;;;;;;5018067;28;20415;-93
2021/11/16 08:28:03;;;;;;;31.37;16.97;;;5.50;99.90;;;;;;5018059;28;20494;-88
2021/11/16 08:30:29;;;;;;;41.70;22.27;;;5.50;99.90;;;;;;5018601;28;20441;-88
2021/11/16 08:32:58;;;;;;;37.17;22.60;;;5.50;99.90;;;;;;5017691;28;20486;-93
2021/11/16 08:35:24;;;;;;;32.10;18.77;;;5.60;99.90;;;;;;5018046;28;20426;-88
2021/11/16 08:37:55;;;;;;;33.17;18.03;;;5.50;99.90;;;;;;5018447;28;20414;-86
2021/11/16 08:40:24;;;;;;;33.77;18.77;;;5.50;99.90;;;;;;5016657;28;20461;-87
2021/11/16 08:42:58;;;;;;;33.80;19.60;;;5.50;99.90;;;;;;5017956;28;20453;-87
2021/11/16 08:45:28;;;;;;;38.27;20.20;;;5.50;99.90;;;;;;5017243;28;20420;-91
2021/11/16 08:48:07;;;;;;;30.77;18.83;;;5.50;99.90;;;;;;5016226;28;20922;-86
2021/11/16 08:51:02;;;;;;;32.70;19.67;;;5.50;99.90;;;;;;5018725;28;20917;-93
2021/11/16 08:53:32;;;;;;;33.83;18.43;;;5.50;99.90;;;;;;5021393;28;20625;-88
2021/11/16 08:56:04;;;;;;;40.73;21.17;;;5.50;99.90;;;;;;5019038;28;20421;-90
2021/11/16 08:58:30;;;;;;;38.77;20.90;;;5.40;99.90;;;;;;5018052;28;20409;-93
2021/11/16 09:01:02;;;;;;;41.67;20.93;;;5.50;99.90;;;;;;5020020;28;20429;-92
2021/11/16 09:03:45;;;;;;;34.23;19.70;;;5.50;99.90;;;;;;5018912;28;20450;-88
2021/11/16 09:06:17;;;;;;;35.73;19.30;;;5.50;99.90;;;;;;5019108;28;20425;-94
2021/11/16 09:08:43;;;;;;;32.30;18.87;;;5.50;99.90;;;;;;5018216;28;20542;-93
2021/11/16 09:11:18;;;;;;;41.17;22.90;;;5.50;99.90;;;;;;5016693;28;20462;-90
2021/11/16 09:13:46;;;;;;;35.50;20.00;;;5.50;99.90;;;;;;5018069;28;20210;-92
2021/11/16 09:16:14;;;;;;;36.40;19.80;;;5.50;99.90;;;;;;5017328;28;21012;-93
2021/11/16 09:18:53;;;;;;;35.70;20.47;;;5.50;99.90;;;;;;5018157;28;20425;-91
2021/11/16 09:21:22;;;;;;;38.43;21.07;;;5.50;99.90;;;;;;5019285;28;20408;-94
2021/11/16 09:24:01;;;;;;;35.13;18.67;;;5.50;99.90;;;;;;5023325;28;20412;-93
2021/11/16 09:29:05;;;;;;;35.47;19.93;;;5.60;99.90;;;;;;5021211;28;20449;-91
2021/11/16 09:31:34;;;;;;;31.60;18.90;;;5.50;99.90;;;;;;5019043;28;20501;-90
2021/11/16 09:34:26;;;;;;;34.30;20.40;;;5.50;99.90;;;;;;5017215;28;20488;-89
2021/11/16 09:37:01;;;;;;;39.77;19.60;;;5.50;99.90;;;;;;5019963;28;20438;-91
2021/11/16 09:39:30;;;;;;;44.07;23.50;;;5.50;99.90;;;;;;5035608;28;20482;-91
2021/11/16 09:42:01;;;;;;;33.27;19.17;;;5.60;99.90;;;;;;5036327;28;20869;-93
2021/11/16 09:44:29;;;;;;;38.70;20.60;;;5.50;99.90;;;;;;5035590;28;20436;-91
2021/11/16 09:46:57;;;;;;;31.20;17.30;;;5.50;99.90;;;;;;5035018;28;20418;-92
2021/11/16 09:49:41;;;;;;;37.13;18.80;;;5.60;99.90;;;;;;5034802;28;20787;-91
2021/11/16 09:52:12;;;;;;;36.83;20.30;;;5.50;99.90;;;;;;5034863;28;20486;-91
2021/11/16 09:55:09;;;;;;;41.17;22.83;;;5.50;99.90;;;;;;5034973;28;20533;-89
2021/11/16 09:57:40;;;;;;;42.17;20.40;;;5.50;99.90;;;;;;5017984;28;20430;-92
2021/11/16 10:00:05;;;;;;;44.90;23.47;;;5.40;99.90;;;;;;5015148;28;20464;-91
2021/11/16 10:02:31;;;;;;;40.50;20.73;;;5.40;99.90;;;;;;5015613;28;20953;-92
2021/11/16 10:05:19;;;;;;;37.70;20.07;;;5.50;99.90;;;;;;5022352;28;20213;-90
2021/11/16 10:07:49;;;;;;;37.60;20.27;;;5.50;99.90;;;;;;5036711;28;20186;-90
2021/11/16 10:10:17;;;;;;;41.43;22.03;;;5.50;99.90;;;;;;5019187;28;20835;-89
2021/11/16 10:12:52;;;;;;;41.20;22.30;;;5.40;99.90;;;;;;4996362;28;20980;-90
2021/11/16 10:15:19;;;;;;;42.40;22.20;;;5.50;99.90;;;;;;4996973;28;20419;-90
2021/11/16 10:17:47;;;;;;;38.83;21.67;;;5.50;99.90;;;;;;4997129;28;21020;-91
2021/11/16 10:20:16;;;;;;;38.50;20.47;;;5.50;99.90;;;;;;4995796;28;20486;-91
2021/11/16 10:22:46;;;;;;;40.57;21.60;;;5.50;99.90;;;;;;4996346;28;20415;-90
2021/11/16 10:25:18;;;;;;;37.57;21.00;;;5.50;99.90;;;;;;4996712;28;20517;-91
2021/11/16 10:27:45;;;;;;;39.53;20.10;;;5.40;99.90;;;;;;4996979;28;20415;-91
2021/11/16 10:30:23;;;;;;;40.37;20.43;;;5.40;99.90;;;;;;4996868;28;20423;-90
2021/11/16 10:33:09;;;;;;;41.27;20.37;;;5.40;99.90;;;;;;4996442;28;20467;-90
2021/11/16 10:35:41;;;;;;;33.60;18.47;;;5.40;99.90;;;;;;4995714;28;20418;-91
2021/11/16 10:38:10;;;;;;;35.63;19.40;;;5.50;99.90;;;;;;4996689;28;20919;-89
2021/11/16 10:40:37;;;;;;;34.70;19.83;;;5.40;99.90;;;;;;4999325;28;20584;-89
2021/11/16 10:43:05;;;;;;;34.40;21.00;;;5.40;99.90;;;;;;4996951;28;20411;-90
2021/11/16 10:45:43;;;;;;;35.73;20.83;;;5.40;99.90;;;;;;4996669;28;20836;-89
2021/11/16 10:48:12;;;;;;;35.83;18.43;;;5.50;99.90;;;;;;4997330;28;20419;-89
2021/11/16 10:50:41;;;;;;;32.70;16.60;;;5.50;99.90;;;;;;4997395;28;20423;-90
2021/11/16 10:53:12;;;;;;;34.37;18.80;;;5.50;99.90;;;;;;4996793;28;20498;-90
2021/11/16 10:55:43;;;;;;;40.63;20.00;;;5.50;99.90;;;;;;4996621;28;20426;-89
2021/11/16 10:58:14;;;;;;;37.77;19.80;;;5.50;99.90;;;;;;5012573;28;20481;-89
2021/11/16 11:01:03;;;;;;;34.27;19.30;;;5.50;99.90;;;;;;4996406;28;21037;-89
2021/11/16 11:03:44;;;;;;;37.00;18.77;;;5.50;99.90;;;;;;4995817;28;20769;-90
2021/11/16 11:06:39;;;;;;;39.67;20.23;;;5.50;99.90;;;;;;4996368;28;20422;-91
2021/11/16 11:09:06;;;;;;;33.77;17.60;;;5.40;99.90;;;;;;4995987;28;20426;-88
2021/11/16 11:11:39;;;;;;;36.80;18.97;;;5.50;99.90;;;;;;4996028;28;20419;-90
2021/11/16 11:14:12;;;;;;;37.23;20.50;;;5.50;99.90;;;;;;4996290;28;20475;-88
2021/11/16 11:16:56;;;;;;;36.03;19.13;;;5.40;99.90;;;;;;4996739;28;20504;-90
2021/11/16 11:19:26;;;;;;;36.77;18.37;;;5.50;99.90;;;;;;4995591;28;20458;-89
2021/11/16 11:22:09;;;;;;;32.83;18.40;;;5.50;99.90;;;;;;4994362;28;20437;-89
2021/11/16 11:24:42;;;;;;;34.63;17.50;;;5.60;99.90;;;;;;4994114;28;20454;-89
2021/11/16 11:27:10;;;;;;;33.33;17.63;;;5.60;99.90;;;;;;4994042;28;20514;-90
2021/11/16 11:29:45;;;;;;;28.73;16.73;;;5.60;99.90;;;;;;4994020;28;20922;-89
2021/11/16 11:32:19;;;;;;;31.33;16.20;;;5.50;99.90;;;;;;4995113;28;20770;-90
2021/11/16 11:34:46;;;;;;;34.70;17.27;;;5.50;99.90;;;;;;4997059;28;20474;-89
2021/11/16 11:37:24;;;;;;;31.87;15.47;;;5.60;99.90;;;;;;4997701;28;20415;-91
2021/11/16 11:40:10;;;;;;;31.60;17.20;;;5.60;99.90;;;;;;4997410;28;20519;-90
2021/11/16 11:42:48;;;;;;;35.33;16.37;;;5.60;99.90;;;;;;5013506;28;20426;-90
2021/11/16 11:45:24;;;;;;;34.97;16.50;;;5.60;99.90;;;;;;4995553;28;20501;-91
2021/11/16 11:48:18;;;;;;;33.30;16.60;;;5.60;99.90;;;;;;5001985;28;20441;-91
2021/11/16 11:50:48;;;;;;;28.90;16.20;;;5.60;99.90;;;;;;5005052;28;20458;-91
2021/11/16 11:53:22;;;;;;;30.37;15.43;;;5.70;99.90;;;;;;5013520;28;20470;-91
2021/11/16 11:55:58;;;;;;;28.43;15.63;;;5.80;99.90;;;;;;5014525;28;20412;-92
2021/11/16 11:58:26;;;;;;;30.20;16.80;;;5.80;99.90;;;;;;4993858;28;20874;-90
2021/11/16 12:01:01;;;;;;;37.67;16.60;;;5.80;99.90;;;;;;4993742;28;20931;-92
2021/11/16 12:03:27;;;;;;;30.67;15.17;;;5.80;99.90;;;;;;4993371;28;20990;-91
2021/11/16 12:05:54;;;;;;;26.87;14.03;;;5.80;99.90;;;;;;4993587;28;20414;-90
2021/11/16 12:08:24;;;;;;;31.10;15.13;;;5.80;99.90;;;;;;4994825;28;20419;-91
2021/11/16 12:10:50;;;;;;;30.80;15.93;;;5.80;99.90;;;;;;4993930;28;20408;-91
2021/11/16 12:13:22;;;;;;;27.10;13.60;;;5.80;99.90;;;;;;4993636;28;20464;-91
2021/11/16 12:15:51;;;;;;;25.33;14.07;;;5.70;99.90;;;;;;5003830;28;20427;-91
2021/11/16 12:18:17;;;;;;;29.57;17.00;;;5.70;99.90;;;;;;5013039;28;20414;-93
2021/11/16 12:20:56;;;;;;;34.23;15.80;;;5.70;99.90;;;;;;5007042;28;20485;-91
2021/11/16 12:23:45;;;;;;;25.60;15.07;;;5.70;99.90;;;;;;5007745;28;20761;-90
2021/11/16 12:26:14;;;;;;;26.47;15.40;;;5.90;99.90;;;;;;5006377;28;20475;-90
2021/11/16 12:28:41;;;;;;;26.47;15.43;;;5.80;99.90;;;;;;5006198;28;20426;-90
2021/11/16 12:31:20;;;;;;;28.13;16.10;;;5.70;99.90;;;;;;5015081;28;20418;-92
2021/11/16 12:33:48;;;;;;;24.27;13.33;;;5.60;99.90;;;;;;5014604;28;20478;-93
2021/11/16 12:36:36;;;;;;;29.90;15.40;;;5.70;99.90;;;;;;5013280;28;20911;-91
2021/11/16 12:39:15;;;;;;;27.20;15.67;;;5.70;99.90;;;;;;5002375;28;20504;-90
2021/11/16 12:41:43;;;;;;;29.87;14.67;;;5.70;99.90;;;;;;5014117;28;20412;-91
2021/11/16 12:44:41;;;;;;;24.70;15.00;;;5.80;99.90;;;;;;5018042;28;20774;-89
2021/11/16 12:47:09;;;;;;;27.80;15.03;;;5.70;99.90;;;;;;5016962;28;20418;-91
2021/11/16 12:49:40;;;;;;;24.67;12.23;;;5.70;99.90;;;;;;5017354;28;20464;-89
2021/11/16 12:52:08;;;;;;;26.53;15.03;;;5.70;99.90;;;;;;5016245;28;20422;-89
2021/11/16 12:54:35;;;;;;;26.50;13.83;;;5.60;99.90;;;;;;5003687;28;20473;-92
2021/11/16 12:57:01;;;;;;;26.43;16.87;;;5.60;99.90;;;;;;5013406;28;20944;-91
2021/11/16 12:59:32;;;;;;;21.40;13.00;;;5.70;99.90;;;;;;5005499;28;20414;-90
2021/11/16 13:02:03;;;;;;;32.33;17.10;;;5.70;99.90;;;;;;5011983;28;20702;-92
2021/11/16 13:04:41;;;;;;;27.47;15.20;;;5.70;99.90;;;;;;5007473;28;20422;-89
2021/11/16 13:07:21;;;;;;;27.40;14.30;;;5.80;99.90;;;;;;4999904;28;20415;-93
2021/11/16 13:09:49;;;;;;;23.70;15.17;;;5.70;99.90;;;;;;5011354;28;20443;-92